createdAt,value
2018-12-26T00:00:18.023Z,12.57
2018-12-26T00:02:46.842Z,6.70
2018-12-26T00:05:13.677Z,9.20
2018-12-26T00:07:40.618Z,12.37
2018-12-26T00:10:07.630Z,9.70
2018-12-26T00:12:34.425Z,13.77
2018-12-26T00:15:01.374Z,3.17
2018-12-26T00:17:28.176Z,7.77
2018-12-26T00:19:55.104Z,6.87
2018-12-26T00:22:21.993Z,6.27
2018-12-26T00:24:48.773Z,9.73
2018-12-26T00:27:15.587Z,8.10
2018-12-26T00:29:42.437Z,8.97
2018-12-26T00:32:09.245Z,8.17
2018-12-26T00:34:36.058Z,6.07
2018-12-26T00:37:02.911Z,10.43
2018-12-26T00:39:29.710Z,10.00
2018-12-26T00:41:56.621Z,6.10
2018-12-26T00:44:23.470Z,11.70
2018-12-26T00:46:50.289Z,6.43
2018-12-26T00:49:17.109Z,9.50
2018-12-26T00:51:43.942Z,10.17
2018-12-26T00:54:10.865Z,9.63
2018-12-26T00:56:37.767Z,9.00
2018-12-26T00:59:04.601Z,11.17
2018-12-26T01:01:31.517Z,11.03
2018-12-26T01:03:58.307Z,11.00
2018-12-26T01:06:25.158Z,7.97
2018-12-26T01:08:51.968Z,6.77
2018-12-26T01:11:18.768Z,7.77
2018-12-26T01:13:45.605Z,5.37
2018-12-26T01:16:12.412Z,6.20
2018-12-26T01:18:39.215Z,8.27
2018-12-26T01:21:06.162Z,7.87
2018-12-26T01:23:33.005Z,8.07
2018-12-26T01:25:59.913Z,8.73
2018-12-26T01:28:26.878Z,12.80
2018-12-26T01:30:53.688Z,3.93
2018-12-26T01:33:20.511Z,7.50
2018-12-26T01:35:47.486Z,7.67
2018-12-26T01:38:14.287Z,7.40
2018-12-26T01:40:41.100Z,9.27
2018-12-26T01:43:08.026Z,11.30
2018-12-26T01:45:34.936Z,7.83
2018-12-26T01:48:01.832Z,10.83
2018-12-26T01:50:28.657Z,7.23
2018-12-26T01:52:55.510Z,12.87
2018-12-26T01:55:22.305Z,9.20
2018-12-26T01:57:49.169Z,5.93
2018-12-26T02:00:15.969Z,11.00
2018-12-26T02:02:42.774Z,6.03
2018-12-26T02:05:09.819Z,10.30
2018-12-26T02:07:36.684Z,10.17
2018-12-26T02:10:04.038Z,6.50
2018-12-26T02:12:30.875Z,6.73
2018-12-26T02:14:57.698Z,11.53
2018-12-26T02:17:24.532Z,9.20
2018-12-26T02:19:51.460Z,8.30
2018-12-26T02:22:18.249Z,8.83
2018-12-26T02:24:45.055Z,4.73
2018-12-26T02:27:12.093Z,9.43
2018-12-26T02:29:45.075Z,10.50
2018-12-26T02:32:11.899Z,9.07
2018-12-26T02:34:38.834Z,7.40
2018-12-26T02:37:05.757Z,5.40
2018-12-26T02:39:32.660Z,10.30
2018-12-26T02:42:01.222Z,9.43
2018-12-26T02:44:28.020Z,12.40
2018-12-26T02:46:54.816Z,8.93
2018-12-26T02:49:21.647Z,9.90
2018-12-26T02:51:48.549Z,8.30
2018-12-26T02:54:15.345Z,10.53
2018-12-26T02:56:47.742Z,11.00
2018-12-26T02:59:11.251Z,10.03
2018-12-26T03:01:38.164Z,7.77
2018-12-26T03:04:05.218Z,8.10
2018-12-26T03:06:32.140Z,9.37
2018-12-26T03:08:58.934Z,13.40
2018-12-26T03:11:25.773Z,9.90
2018-12-26T03:13:52.885Z,5.83
2018-12-26T03:16:19.782Z,9.07
2018-12-26T03:18:46.616Z,14.43
2018-12-26T03:21:13.507Z,9.60
2018-12-26T03:23:40.290Z,7.87
2018-12-26T03:26:07.111Z,13.47
2018-12-26T03:28:34.046Z,7.30
2018-12-26T03:31:00.876Z,5.70
2018-12-26T03:33:27.934Z,11.23
2018-12-26T03:35:54.834Z,10.30
2018-12-26T03:38:21.736Z,9.40
2018-12-26T03:40:48.963Z,9.10
2018-12-26T03:43:15.976Z,7.07
2018-12-26T03:45:43.285Z,11.77
2018-12-26T03:48:10.827Z,10.30
2018-12-26T03:50:37.921Z,4.77
2018-12-26T03:53:04.934Z,9.23
2018-12-26T03:55:32.697Z,9.33
2018-12-26T03:57:59.790Z,10.90
2018-12-26T04:00:26.687Z,10.43
2018-12-26T04:02:53.633Z,12.27
2018-12-26T04:05:20.633Z,10.33
2018-12-26T04:07:47.534Z,8.57
2018-12-26T04:10:14.486Z,6.97
2018-12-26T04:12:41.382Z,8.07
2018-12-26T04:15:08.402Z,9.77
2018-12-26T04:17:35.530Z,15.23
2018-12-26T04:20:03.003Z,9.10
2018-12-26T04:22:29.910Z,14.70
2018-12-26T04:24:57.167Z,10.00
2018-12-26T04:27:24.066Z,4.53
2018-12-26T04:29:50.985Z,11.80
2018-12-26T04:32:17.940Z,12.17
2018-12-26T04:34:44.797Z,8.73
2018-12-26T04:37:11.638Z,9.30
2018-12-26T04:39:38.462Z,10.20
2018-12-26T04:42:05.262Z,9.87
2018-12-26T04:44:32.160Z,8.60
2018-12-26T04:46:58.990Z,10.27
2018-12-26T04:49:25.921Z,10.13
2018-12-26T04:51:52.766Z,10.70
2018-12-26T04:54:19.614Z,10.47
2018-12-26T04:56:46.449Z,14.03
2018-12-26T04:59:13.249Z,14.43
2018-12-26T05:01:42.076Z,10.80
2018-12-26T05:04:08.830Z,11.73
2018-12-26T05:06:35.830Z,12.30
2018-12-26T05:09:05.537Z,12.10
2018-12-26T05:11:32.448Z,13.13
2018-12-26T05:13:59.444Z,8.50
2018-12-26T05:16:26.489Z,9.13
2018-12-26T05:18:53.402Z,13.47
2018-12-26T05:21:20.502Z,9.70
2018-12-26T05:23:47.535Z,12.40
2018-12-26T05:26:14.527Z,8.13
2018-12-26T05:28:41.335Z,12.53
2018-12-26T05:31:10.190Z,10.23
2018-12-26T05:33:37.269Z,6.67
2018-12-26T05:36:04.170Z,13.53
2018-12-26T05:38:31.013Z,20.23
2018-12-26T05:40:57.830Z,10.67
2018-12-26T05:43:24.758Z,9.10
2018-12-26T05:45:51.695Z,6.90
2018-12-26T05:48:18.573Z,12.30
2018-12-26T05:50:45.379Z,12.93
2018-12-26T05:53:12.230Z,11.77
2018-12-26T05:55:39.014Z,10.73
2018-12-26T05:58:05.841Z,8.53
2018-12-26T06:00:32.741Z,13.60
2018-12-26T06:02:59.546Z,10.13
2018-12-26T06:05:26.346Z,16.73
2018-12-26T06:07:53.190Z,7.23
2018-12-26T06:10:20.004Z,12.50
2018-12-26T06:12:46.813Z,10.50
2018-12-26T06:15:13.646Z,13.67
2018-12-26T06:17:40.436Z,15.20
2018-12-26T06:20:07.263Z,13.43
2018-12-26T06:22:34.110Z,11.63
2018-12-26T06:25:00.906Z,10.83
2018-12-26T06:27:27.722Z,11.77
2018-12-26T06:29:54.679Z,12.73
2018-12-26T06:32:21.492Z,11.03
2018-12-26T06:34:48.398Z,15.10
2018-12-26T06:37:15.356Z,9.90
2018-12-26T06:39:42.158Z,12.70
2018-12-26T06:42:08.954Z,8.07
2018-12-26T06:44:35.803Z,15.13
2018-12-26T06:47:02.703Z,12.80
2018-12-26T06:49:29.503Z,17.20
2018-12-26T06:51:56.337Z,13.07
2018-12-26T06:54:23.259Z,10.90
2018-12-26T06:56:50.042Z,14.63
2018-12-26T06:59:16.870Z,11.70
2018-12-26T07:01:43.682Z,8.57
2018-12-26T07:04:10.590Z,10.70
2018-12-26T07:06:39.503Z,12.40
2018-12-26T07:09:07.622Z,12.27
2018-12-26T07:11:34.439Z,12.53
2018-12-26T07:14:01.297Z,6.70
2018-12-26T07:16:28.210Z,14.10
2018-12-26T07:18:55.006Z,11.63
2018-12-26T07:21:21.828Z,11.03
2018-12-26T07:23:48.643Z,14.73
2018-12-26T07:26:15.429Z,14.57
2018-12-26T07:28:42.246Z,12.70
2018-12-26T07:31:09.027Z,13.57
2018-12-26T07:33:35.833Z,12.43
2018-12-26T07:36:02.931Z,17.10
2018-12-26T07:38:29.731Z,10.90
2018-12-26T07:40:56.649Z,12.70
2018-12-26T07:43:23.518Z,15.00
2018-12-26T07:45:50.302Z,13.60
2018-12-26T07:48:17.090Z,17.50
2018-12-26T07:50:43.939Z,13.03
2018-12-26T07:53:10.843Z,9.03
2018-12-26T07:55:37.638Z,11.33
2018-12-26T07:58:04.476Z,10.13
2018-12-26T08:00:31.311Z,16.57
2018-12-26T08:02:58.193Z,14.60
2018-12-26T08:05:25.019Z,12.20
2018-12-26T08:07:51.805Z,16.70
2018-12-26T08:10:18.653Z,17.10
2018-12-26T08:12:45.478Z,12.77
2018-12-26T08:15:12.369Z,11.10
2018-12-26T08:17:39.174Z,20.10
2018-12-26T08:20:06.630Z,14.10
2018-12-26T08:22:33.743Z,18.53
2018-12-26T08:25:00.531Z,19.17
2018-12-26T08:27:27.454Z,13.00
2018-12-26T08:29:54.271Z,12.47
2018-12-26T08:32:21.075Z,19.80
2018-12-26T08:34:47.924Z,13.43
2018-12-26T08:37:14.731Z,11.27
2018-12-26T08:39:41.538Z,16.70
2018-12-26T08:42:08.356Z,13.63
2018-12-26T08:44:35.155Z,19.77
2018-12-26T08:47:01.992Z,18.43
2018-12-26T08:49:28.937Z,16.40
2018-12-26T08:51:55.738Z,17.67
2018-12-26T08:54:22.528Z,16.77
2018-12-26T08:56:49.353Z,17.50
2018-12-26T08:59:16.259Z,11.50
2018-12-26T09:01:43.161Z,17.40
2018-12-26T09:04:10.972Z,21.87
2018-12-26T09:06:37.985Z,16.07
2018-12-26T09:09:05.475Z,16.33
2018-12-26T09:11:32.432Z,18.47
2018-12-26T09:13:59.247Z,14.67
2018-12-26T09:16:26.117Z,17.30
2018-12-26T09:18:52.966Z,19.13
2018-12-26T09:21:19.866Z,15.97
2018-12-26T09:23:46.810Z,18.67
2018-12-26T09:26:13.661Z,20.60
2018-12-26T09:28:43.984Z,17.57
2018-12-26T09:31:09.149Z,15.10
2018-12-26T09:33:35.986Z,16.07
2018-12-26T09:36:02.880Z,17.27
2018-12-26T09:38:29.783Z,20.03
2018-12-26T09:40:56.622Z,17.53
2018-12-26T09:43:23.413Z,24.63
2018-12-26T09:45:50.212Z,13.37
2018-12-26T09:48:17.035Z,25.93
2018-12-26T09:50:43.841Z,20.40
2018-12-26T09:53:10.664Z,28.13
2018-12-26T09:55:37.607Z,17.33
2018-12-26T09:58:04.407Z,22.23
2018-12-26T10:00:31.284Z,16.40
2018-12-26T10:02:58.119Z,24.50
2018-12-26T10:05:24.923Z,18.53
2018-12-26T10:07:51.718Z,16.37
2018-12-26T10:10:18.541Z,18.43
2018-12-26T10:12:45.409Z,22.23
2018-12-26T10:15:12.230Z,20.33
2018-12-26T10:17:39.062Z,20.93
2018-12-26T10:20:05.999Z,16.93
2018-12-26T10:22:32.770Z,18.17
2018-12-26T10:24:59.594Z,19.77
2018-12-26T10:27:26.426Z,15.10
2018-12-26T10:29:53.249Z,22.33
2018-12-26T10:32:20.098Z,22.60
2018-12-26T10:34:46.905Z,17.30
2018-12-26T10:37:13.849Z,15.27
2018-12-26T10:39:40.690Z,21.27
2018-12-26T10:42:07.493Z,15.93
2018-12-26T10:44:34.283Z,17.03
2018-12-26T10:47:01.183Z,23.20
2018-12-26T10:49:28.084Z,14.50
2018-12-26T10:51:54.906Z,21.93
2018-12-26T10:54:21.738Z,20.03
2018-12-26T10:56:48.527Z,21.63
2018-12-26T10:59:15.353Z,23.53
2018-12-26T11:01:42.301Z,26.27
2018-12-26T11:04:09.109Z,14.97
2018-12-26T11:06:35.953Z,20.73
2018-12-26T11:09:05.234Z,16.40
2018-12-26T11:11:32.052Z,21.80
2018-12-26T11:13:58.946Z,21.10
2018-12-26T11:16:25.902Z,15.83
2018-12-26T11:18:53.313Z,15.33
2018-12-26T11:21:20.201Z,18.73
2018-12-26T11:23:47.045Z,19.47
2018-12-26T11:26:13.834Z,25.07
2018-12-26T11:28:40.835Z,17.03
2018-12-26T11:31:07.711Z,17.63
2018-12-26T11:33:34.516Z,21.53
2018-12-26T11:36:01.312Z,19.60
2018-12-26T11:38:28.354Z,16.50
2018-12-26T11:40:55.248Z,18.03
2018-12-26T11:43:22.266Z,18.53
2018-12-26T11:45:49.128Z,14.80
2018-12-26T11:48:16.027Z,18.33
2018-12-26T11:50:42.858Z,16.97
2018-12-26T11:53:09.694Z,21.30
2018-12-26T11:55:36.635Z,20.83
2018-12-26T11:58:03.542Z,20.17
2018-12-26T12:00:30.377Z,16.20
2018-12-26T12:02:57.278Z,16.77
2018-12-26T12:05:24.258Z,20.60
2018-12-26T12:07:51.328Z,20.40
2018-12-26T12:10:18.240Z,18.97
2018-12-26T12:12:45.154Z,20.73
2018-12-26T12:15:12.209Z,17.30
2018-12-26T12:17:39.020Z,18.43
2018-12-26T12:20:07.926Z,19.23
2018-12-26T12:22:34.781Z,17.87
2018-12-26T12:25:01.581Z,15.87
2018-12-26T12:27:28.382Z,18.50
2018-12-26T12:29:55.228Z,12.33
2018-12-26T12:32:22.123Z,15.53
2018-12-26T12:34:49.038Z,18.73
2018-12-26T12:37:15.971Z,14.13
2018-12-26T12:39:42.965Z,17.97
2018-12-26T12:42:09.969Z,16.63
2018-12-26T12:44:39.940Z,19.20
2018-12-26T12:47:07.161Z,13.33
2018-12-26T12:49:34.149Z,13.70
2018-12-26T12:52:01.136Z,18.87
2018-12-26T12:54:27.917Z,15.23
2018-12-26T12:56:54.917Z,15.87
2018-12-26T12:59:21.862Z,10.57
2018-12-26T13:01:48.868Z,8.63
2018-12-26T13:04:15.854Z,11.63
2018-12-26T13:06:42.702Z,10.93
2018-12-26T13:09:09.511Z,14.87
2018-12-26T13:11:36.359Z,10.63
2018-12-26T13:14:03.414Z,11.77
2018-12-26T13:16:30.194Z,16.30
2018-12-26T13:18:57.142Z,12.97
2018-12-26T13:21:24.090Z,14.63
2018-12-26T13:23:50.897Z,14.77
2018-12-26T13:26:17.702Z,16.03
2018-12-26T13:28:44.533Z,13.40
2018-12-26T13:31:11.343Z,16.97
2018-12-26T13:33:38.129Z,12.90
2018-12-26T13:36:04.978Z,16.30
2018-12-26T13:38:31.791Z,10.73
2018-12-26T13:40:58.598Z,16.87
2018-12-26T13:43:25.425Z,12.80
2018-12-26T13:45:52.218Z,20.03
2018-12-26T13:48:19.213Z,10.07
2018-12-26T13:50:46.043Z,14.27
2018-12-26T13:53:12.851Z,12.57
2018-12-26T13:55:39.658Z,14.13
2018-12-26T13:58:06.633Z,19.63
2018-12-26T14:00:33.443Z,12.00
2018-12-26T14:03:00.243Z,11.57
2018-12-26T14:05:27.090Z,12.97
2018-12-26T14:07:53.881Z,10.97
2018-12-26T14:10:20.790Z,11.60
2018-12-26T14:12:47.650Z,13.17
2018-12-26T14:15:14.643Z,11.10
2018-12-26T14:17:41.430Z,13.63
2018-12-26T14:20:08.457Z,11.83
2018-12-26T14:22:35.334Z,17.63
2018-12-26T14:25:02.251Z,12.80
2018-12-26T14:27:29.610Z,10.17
2018-12-26T14:29:56.803Z,16.13
2018-12-26T14:32:23.606Z,19.33
2018-12-26T14:34:50.456Z,12.53
2018-12-26T14:37:17.507Z,15.93
2018-12-26T14:39:44.296Z,11.83
2018-12-26T14:42:11.154Z,12.23
2018-12-26T14:44:37.954Z,11.67
2018-12-26T14:47:04.754Z,13.23
2018-12-26T14:49:31.577Z,11.33
2018-12-26T14:51:58.593Z,10.03
2018-12-26T14:54:25.387Z,14.60
2018-12-26T14:56:52.335Z,17.80
2018-12-26T14:59:19.235Z,12.73
2018-12-26T15:01:46.054Z,15.83
2018-12-26T15:04:12.897Z,7.87
2018-12-26T15:06:39.703Z,11.73
2018-12-26T15:09:07.043Z,16.13
2018-12-26T15:11:33.987Z,10.80
2018-12-26T15:14:00.891Z,13.63
2018-12-26T15:16:27.695Z,9.97
2018-12-26T15:18:56.445Z,13.40
2018-12-26T15:21:23.318Z,16.40
2018-12-26T15:23:50.231Z,20.33
2018-12-26T15:26:17.074Z,10.10
2018-12-26T15:28:43.895Z,11.47
2018-12-26T15:31:10.694Z,12.10
2018-12-26T15:33:37.881Z,12.77
2018-12-26T15:36:04.666Z,14.17
2018-12-26T15:38:31.459Z,15.07
2018-12-26T15:40:58.405Z,10.33
2018-12-26T15:43:25.189Z,13.37
2018-12-26T15:45:51.986Z,12.90
2018-12-26T15:48:18.980Z,14.87
2018-12-26T15:50:45.773Z,9.77
2018-12-26T15:53:12.586Z,11.37
2018-12-26T15:55:39.613Z,11.97
2018-12-26T15:58:09.694Z,15.70
2018-12-26T16:00:37.502Z,13.63
2018-12-26T16:03:06.501Z,16.17
2018-12-26T16:05:33.503Z,19.97
2018-12-26T16:08:00.413Z,11.00
2018-12-26T16:10:27.246Z,16.70
2018-12-26T16:12:54.254Z,12.83
2018-12-26T16:15:21.193Z,15.00
2018-12-26T16:17:48.007Z,14.57
2018-12-26T16:20:14.802Z,14.10
2018-12-26T16:22:41.593Z,11.90
2018-12-26T16:25:08.605Z,8.93
2018-12-26T16:27:35.495Z,11.57
2018-12-26T16:30:02.765Z,12.70
2018-12-26T16:32:29.583Z,12.50
2018-12-26T16:34:56.471Z,17.90
2018-12-26T16:37:23.401Z,14.83
2018-12-26T16:39:50.260Z,13.70
2018-12-26T16:42:17.119Z,9.67
2018-12-26T16:44:43.990Z,11.47
2018-12-26T16:47:10.906Z,11.70
2018-12-26T16:49:37.846Z,17.13
2018-12-26T16:52:04.746Z,12.63
2018-12-26T16:54:31.565Z,9.23
2018-12-26T16:56:58.371Z,10.73
2018-12-26T16:59:25.371Z,15.07
2018-12-26T17:01:52.342Z,12.90
2018-12-26T17:04:19.142Z,15.33
2018-12-26T17:06:46.033Z,15.47
2018-12-26T17:09:13.743Z,14.27
2018-12-26T17:11:40.657Z,16.30
2018-12-26T17:14:07.475Z,16.00
2018-12-26T17:16:34.312Z,17.93
2018-12-26T17:19:01.342Z,21.70
2018-12-26T17:21:28.160Z,14.17
2018-12-26T17:23:55.003Z,18.57
2018-12-26T17:26:21.803Z,18.30
2018-12-26T17:28:48.698Z,21.87
2018-12-26T17:31:15.559Z,21.93
2018-12-26T17:33:42.358Z,23.93
2018-12-26T17:36:09.442Z,26.27
2018-12-26T17:38:36.325Z,25.47
2018-12-26T17:41:03.395Z,26.03
2018-12-26T17:43:30.210Z,30.60
2018-12-26T17:45:57.633Z,30.40
2018-12-26T17:48:24.640Z,27.10
2018-12-26T17:50:51.574Z,21.53
2018-12-26T17:53:29.401Z,27.47
2018-12-26T17:56:30.298Z,25.97
2018-12-26T17:59:29.749Z,21.27
2018-12-26T18:02:11.064Z,27.90
2018-12-26T18:04:37.918Z,27.43
2018-12-26T18:07:04.830Z,28.40
2018-12-26T18:09:31.731Z,27.83
2018-12-26T18:12:11.183Z,27.50
2018-12-26T18:14:27.408Z,27.57
2018-12-26T18:16:54.195Z,30.00
2018-12-26T18:19:21.180Z,28.00
2018-12-26T18:21:47.970Z,30.40
2018-12-26T18:24:14.799Z,22.93
2018-12-26T18:26:41.745Z,31.20
2018-12-26T18:29:08.655Z,27.87
2018-12-26T18:31:36.901Z,27.93
2018-12-26T18:34:04.197Z,23.33
2018-12-26T18:36:31.014Z,32.07
2018-12-26T18:38:57.827Z,27.87
2018-12-26T18:41:24.726Z,33.37
2018-12-26T18:43:51.555Z,37.00
2018-12-26T18:46:18.610Z,37.90
2018-12-26T18:48:45.454Z,38.27
2018-12-26T18:51:12.249Z,39.93
2018-12-26T18:53:39.072Z,43.40
2018-12-26T18:56:06.012Z,40.00
2018-12-26T18:58:32.816Z,46.93
2018-12-26T19:00:59.619Z,51.77
2018-12-26T19:03:26.557Z,50.13
2018-12-26T19:05:53.494Z,50.07
2018-12-26T19:08:20.302Z,55.77
2018-12-26T19:10:47.145Z,59.73
2018-12-26T19:13:13.958Z,62.43
2018-12-26T19:15:40.790Z,66.93
2018-12-26T19:18:07.706Z,66.27
2018-12-26T19:20:34.617Z,74.43
2018-12-26T19:23:01.414Z,75.27
2018-12-26T19:25:28.238Z,77.90
2018-12-26T19:27:55.078Z,68.00
2018-12-26T19:30:22.380Z,83.83
2018-12-26T19:32:49.406Z,114.37
2018-12-26T19:35:16.205Z,101.90
2018-12-26T19:37:43.118Z,104.00
2018-12-26T19:40:10.200Z,153.97
2018-12-26T19:42:37.426Z,179.00
2018-12-26T19:45:05.374Z,175.67
2018-12-26T19:47:32.265Z,235.30
2018-12-26T19:50:04.825Z,226.53
2018-12-26T19:52:27.898Z,212.57
2018-12-26T19:54:54.758Z,218.60
2018-12-26T19:57:21.565Z,195.23
2018-12-26T19:59:48.582Z,163.90
2018-12-26T20:02:15.426Z,136.77
2018-12-26T20:04:42.221Z,139.90
2018-12-26T20:07:09.033Z,131.80
2018-12-26T20:09:35.886Z,134.60
2018-12-26T20:12:06.236Z,108.90
2018-12-26T20:14:33.027Z,116.00
2018-12-26T20:16:59.970Z,110.90
2018-12-26T20:19:26.914Z,107.83
2018-12-26T20:21:53.724Z,124.83
2018-12-26T20:24:20.610Z,112.10
2018-12-26T20:26:47.418Z,97.67
2018-12-26T20:29:14.313Z,117.03
2018-12-26T20:31:42.038Z,127.77
2018-12-26T20:34:08.838Z,128.57
2018-12-26T20:36:35.634Z,118.10
2018-12-26T20:39:04.486Z,114.27
2018-12-26T20:41:31.304Z,103.73
2018-12-26T20:43:58.108Z,112.73
2018-12-26T20:46:25.151Z,114.17
2018-12-26T20:48:52.054Z,114.97
2018-12-26T20:51:18.982Z,111.20
2018-12-26T20:53:45.857Z,127.10
2018-12-26T20:56:12.669Z,122.63
2018-12-26T20:58:39.477Z,122.83
2018-12-26T21:01:06.399Z,120.40
2018-12-26T21:03:33.322Z,125.20
2018-12-26T21:06:00.118Z,120.87
2018-12-26T21:08:26.942Z,108.93
2018-12-26T21:10:53.790Z,104.30
2018-12-26T21:13:20.594Z,122.37
2018-12-26T21:15:47.442Z,107.30
2018-12-26T21:18:14.243Z,109.80
2018-12-26T21:20:41.055Z,121.93
2018-12-26T21:23:08.018Z,112.30
2018-12-26T21:25:35.031Z,109.67
2018-12-26T21:28:01.829Z,113.20
2018-12-26T21:30:28.822Z,123.43
2018-12-26T21:32:55.726Z,129.30
2018-12-26T21:35:22.756Z,133.40
2018-12-26T21:37:49.603Z,119.00
2018-12-26T21:40:16.533Z,136.27
2018-12-26T21:42:43.351Z,119.33
2018-12-26T21:45:10.851Z,124.97
2018-12-26T21:47:37.862Z,113.43
2018-12-26T21:50:06.366Z,115.97
2018-12-26T21:52:33.189Z,114.00
2018-12-26T21:55:00.010Z,125.90
2018-12-26T21:57:26.792Z,122.93
2018-12-26T21:59:53.644Z,130.90
2018-12-26T22:02:22.563Z,121.07
2018-12-26T22:04:49.183Z,119.80
2018-12-26T22:07:16.001Z,116.20
2018-12-26T22:09:42.831Z,135.97
2018-12-26T22:12:09.628Z,122.30
2018-12-26T22:14:36.542Z,119.00
2018-12-26T22:17:03.410Z,131.93
2018-12-26T22:19:30.227Z,124.80
2018-12-26T22:21:57.054Z,118.17
2018-12-26T22:24:23.873Z,121.87
2018-12-26T22:26:50.678Z,128.37
2018-12-26T22:29:17.518Z,127.70
2018-12-26T22:31:44.360Z,112.47
2018-12-26T22:34:11.161Z,104.10
2018-12-26T22:36:38.147Z,118.33
2018-12-26T22:39:05.772Z,122.67
2018-12-26T22:41:32.561Z,109.50
2018-12-26T22:43:59.454Z,116.17
2018-12-26T22:46:26.246Z,119.37
2018-12-26T22:48:53.061Z,115.03
2018-12-26T22:51:19.913Z,125.23
2018-12-26T22:53:46.806Z,116.57
2018-12-26T22:56:13.614Z,127.10
2018-12-26T22:58:40.512Z,132.27
2018-12-26T23:01:07.453Z,122.00
2018-12-26T23:03:34.279Z,123.40
2018-12-26T23:06:01.240Z,120.83
2018-12-26T23:08:28.133Z,110.70
2018-12-26T23:10:54.942Z,106.13
2018-12-26T23:13:21.815Z,103.43
2018-12-26T23:15:50.481Z,111.13
2018-12-26T23:18:17.460Z,98.27
2018-12-26T23:20:44.420Z,110.63
2018-12-26T23:23:11.231Z,119.70
2018-12-26T23:25:38.040Z,111.97
2018-12-26T23:28:04.866Z,100.20
2018-12-26T23:30:31.659Z,97.20
2018-12-26T23:32:58.558Z,100.50
2018-12-26T23:35:25.435Z,103.83
2018-12-26T23:37:52.348Z,99.37
2018-12-26T23:40:19.166Z,93.47
2018-12-26T23:42:46.166Z,96.83
2018-12-26T23:45:13.199Z,92.30
2018-12-26T23:47:40.106Z,90.53
2018-12-26T23:50:07.170Z,90.37
2018-12-26T23:52:36.773Z,78.53
2018-12-26T23:55:04.362Z,82.10
2018-12-26T23:57:31.218Z,95.10
2018-12-26T23:59:58.023Z,85.60
